sensor_id;sensor_type;location;lat;lon;timestamp;P1;durP1;ratioP1;P2;durP2;ratioP2
80338;SDS011;69655;44.498;0.166;2023-09-19T00:09:00;14.03;;;3.20;;
80338;SDS011;69655;44.498;0.166;2023-09-19T00:14:33;11.50;;;3.30;;
80338;SDS011;69655;44.498;0.166;2023-09-19T00:20:06;13.20;;;3.23;;
80338;SDS011;69655;44.498;0.166;2023-09-19T00:25:38;15.43;;;3.73;;
80338;SDS011;69655;44.498;0.166;2023-09-19T00:31:11;13.77;;;3.90;;
80338;SDS011;69655;44.498;0.166;2023-09-19T00:36:45;12.23;;;3.90;;
80338;SDS011;69655;44.498;0.166;2023-09-19T00:42:18;15.37;;;4.30;;
80338;SDS011;69655;44.498;0.166;2023-09-19T00:47:50;15.93;;;4.70;;
80338;SDS011;69655;44.498;0.166;2023-09-19T00:53:23;13.87;;;4.17;;
80338;SDS011;69655;44.498;0.166;2023-09-19T00:58:56;14.13;;;4.43;;
80338;SDS011;69655;44.498;0.166;2023-09-19T01:04:29;17.30;;;4.60;;
80338;SDS011;69655;44.498;0.166;2023-09-19T01:10:02;17.63;;;4.60;;
80338;SDS011;69655;44.498;0.166;2023-09-19T01:15:40;15.00;;;4.23;;
80338;SDS011;69655;44.498;0.166;2023-09-19T01:21:11;16.50;;;5.27;;
80338;SDS011;69655;44.498;0.166;2023-09-19T01:26:48;19.33;;;4.13;;
80338;SDS011;69655;44.498;0.166;2023-09-19T01:32:16;13.47;;;4.37;;
80338;SDS011;69655;44.498;0.166;2023-09-19T01:37:48;11.33;;;3.97;;
80338;SDS011;69655;44.498;0.166;2023-09-19T01:43:21;15.80;;;4.50;;
80338;SDS011;69655;44.498;0.166;2023-09-19T01:48:56;15.57;;;4.20;;
80338;SDS011;69655;44.498;0.166;2023-09-19T01:54:30;12.50;;;4.27;;
80338;SDS011;69655;44.498;0.166;2023-09-19T02:00:02;12.90;;;4.30;;
80338;SDS011;69655;44.498;0.166;2023-09-19T02:05:33;14.23;;;4.20;;
80338;SDS011;69655;44.498;0.166;2023-09-19T02:11:07;13.07;;;4.80;;
80338;SDS011;69655;44.498;0.166;2023-09-19T02:16:40;10.10;;;4.47;;
80338;SDS011;69655;44.498;0.166;2023-09-19T02:22:13;15.03;;;4.30;;
80338;SDS011;69655;44.498;0.166;2023-09-19T02:27:46;14.67;;;4.17;;
80338;SDS011;69655;44.498;0.166;2023-09-19T02:33:19;13.40;;;4.70;;
80338;SDS011;69655;44.498;0.166;2023-09-19T02:38:51;14.37;;;5.30;;
80338;SDS011;69655;44.498;0.166;2023-09-19T02:44:23;16.37;;;6.03;;
80338;SDS011;69655;44.498;0.166;2023-09-19T02:49:56;16.73;;;5.70;;
80338;SDS011;69655;44.498;0.166;2023-09-19T02:55:30;14.73;;;6.07;;
80338;SDS011;69655;44.498;0.166;2023-09-19T03:01:10;19.53;;;6.33;;
80338;SDS011;69655;44.498;0.166;2023-09-19T03:06:37;17.50;;;5.93;;
80338;SDS011;69655;44.498;0.166;2023-09-19T03:12:09;17.27;;;5.67;;
80338;SDS011;69655;44.498;0.166;2023-09-19T03:17:42;15.87;;;5.30;;
80338;SDS011;69655;44.498;0.166;2023-09-19T03:23:14;16.17;;;5.60;;
80338;SDS011;69655;44.498;0.166;2023-09-19T03:28:47;12.90;;;4.80;;
80338;SDS011;69655;44.498;0.166;2023-09-19T03:34:20;13.93;;;5.50;;
80338;SDS011;69655;44.498;0.166;2023-09-19T03:39:54;16.57;;;5.90;;
80338;SDS011;69655;44.498;0.166;2023-09-19T03:45:26;15.87;;;5.50;;
80338;SDS011;69655;44.498;0.166;2023-09-19T03:50:59;16.80;;;5.73;;
80338;SDS011;69655;44.498;0.166;2023-09-19T03:56:33;16.40;;;6.27;;
80338;SDS011;69655;44.498;0.166;2023-09-19T04:02:06;15.77;;;5.53;;
80338;SDS011;69655;44.498;0.166;2023-09-19T04:07:38;13.87;;;5.00;;
80338;SDS011;69655;44.498;0.166;2023-09-19T04:13:11;13.03;;;5.53;;
80338;SDS011;69655;44.498;0.166;2023-09-19T04:18:43;16.80;;;6.20;;
80338;SDS011;69655;44.498;0.166;2023-09-19T04:24:16;14.20;;;5.73;;
80338;SDS011;69655;44.498;0.166;2023-09-19T04:29:49;18.10;;;6.53;;
80338;SDS011;69655;44.498;0.166;2023-09-19T04:35:22;13.83;;;6.30;;
80338;SDS011;69655;44.498;0.166;2023-09-19T04:40:57;19.53;;;7.67;;
80338;SDS011;69655;44.498;0.166;2023-09-19T04:46:28;17.30;;;6.23;;
80338;SDS011;69655;44.498;0.166;2023-09-19T04:52:00;15.63;;;6.30;;
80338;SDS011;69655;44.498;0.166;2023-09-19T04:57:33;23.87;;;7.00;;
80338;SDS011;69655;44.498;0.166;2023-09-19T05:03:06;21.57;;;6.87;;
80338;SDS011;69655;44.498;0.166;2023-09-19T05:14:11;13.90;;;6.10;;
80338;SDS011;69655;44.498;0.166;2023-09-19T05:19:44;15.17;;;6.83;;
80338;SDS011;69655;44.498;0.166;2023-09-19T05:25:18;22.00;;;7.83;;
80338;SDS011;69655;44.498;0.166;2023-09-19T05:30:51;18.00;;;6.90;;
80338;SDS011;69655;44.498;0.166;2023-09-19T05:36:23;16.83;;;6.87;;
80338;SDS011;69655;44.498;0.166;2023-09-19T05:41:56;22.77;;;8.20;;
80338;SDS011;69655;44.498;0.166;2023-09-19T05:47:30;18.20;;;6.50;;
80338;SDS011;69655;44.498;0.166;2023-09-19T05:53:02;18.47;;;7.17;;
80338;SDS011;69655;44.498;0.166;2023-09-19T05:58:34;28.17;;;8.53;;
80338;SDS011;69655;44.498;0.166;2023-09-19T06:04:07;16.83;;;6.23;;
80338;SDS011;69655;44.498;0.166;2023-09-19T06:09:40;23.50;;;8.50;;
80338;SDS011;69655;44.498;0.166;2023-09-19T06:15:13;22.23;;;7.77;;
80338;SDS011;69655;44.498;0.166;2023-09-19T06:20:46;18.17;;;8.13;;
80338;SDS011;69655;44.498;0.166;2023-09-19T06:26:17;15.67;;;7.23;;
80338;SDS011;69655;44.498;0.166;2023-09-19T06:31:51;16.80;;;5.93;;
80338;SDS011;69655;44.498;0.166;2023-09-19T06:37:23;17.37;;;7.27;;
80338;SDS011;69655;44.498;0.166;2023-09-19T06:42:57;23.60;;;9.23;;
80338;SDS011;69655;44.498;0.166;2023-09-19T06:48:29;16.33;;;8.83;;
80338;SDS011;69655;44.498;0.166;2023-09-19T06:54:02;18.50;;;10.83;;
80338;SDS011;69655;44.498;0.166;2023-09-19T06:59:34;26.10;;;13.80;;
80338;SDS011;69655;44.498;0.166;2023-09-19T07:05:08;41.13;;;13.40;;
80338;SDS011;69655;44.498;0.166;2023-09-19T07:10:42;28.83;;;14.33;;
80338;SDS011;69655;44.498;0.166;2023-09-19T07:16:15;25.80;;;13.87;;
80338;SDS011;69655;44.498;0.166;2023-09-19T07:21:48;19.30;;;11.43;;
80338;SDS011;69655;44.498;0.166;2023-09-19T07:27:21;16.40;;;8.77;;
80338;SDS011;69655;44.498;0.166;2023-09-19T07:32:54;11.63;;;5.67;;
80338;SDS011;69655;44.498;0.166;2023-09-19T07:38:26;10.13;;;4.93;;
80338;SDS011;69655;44.498;0.166;2023-09-19T07:43:59;17.67;;;6.00;;
80338;SDS011;69655;44.498;0.166;2023-09-19T07:49:32;12.23;;;5.17;;
80338;SDS011;69655;44.498;0.166;2023-09-19T07:55:05;12.33;;;5.23;;
80338;SDS011;69655;44.498;0.166;2023-09-19T08:00:37;14.30;;;5.37;;
80338;SDS011;69655;44.498;0.166;2023-09-19T08:06:11;11.77;;;4.50;;
80338;SDS011;69655;44.498;0.166;2023-09-19T08:11:45;9.30;;;3.97;;
80338;SDS011;69655;44.498;0.166;2023-09-19T08:17:17;11.47;;;3.63;;
80338;SDS011;69655;44.498;0.166;2023-09-19T08:22:52;9.83;;;3.47;;
80338;SDS011;69655;44.498;0.166;2023-09-19T08:28:24;11.17;;;3.83;;
80338;SDS011;69655;44.498;0.166;2023-09-19T08:33:58;11.73;;;3.63;;
80338;SDS011;69655;44.498;0.166;2023-09-19T08:39:31;9.30;;;3.90;;
80338;SDS011;69655;44.498;0.166;2023-09-19T08:45:03;9.63;;;3.53;;
80338;SDS011;69655;44.498;0.166;2023-09-19T08:56:10;12.40;;;3.67;;
80338;SDS011;69655;44.498;0.166;2023-09-19T09:01:43;10.80;;;2.90;;
80338;SDS011;69655;44.498;0.166;2023-09-19T09:07:15;9.67;;;4.10;;
80338;SDS011;69655;44.498;0.166;2023-09-19T09:12:48;7.10;;;3.37;;
80338;SDS011;69655;44.498;0.166;2023-09-19T09:18:22;6.57;;;2.57;;
80338;SDS011;69655;44.498;0.166;2023-09-19T09:23:55;12.13;;;3.30;;
80338;SDS011;69655;44.498;0.166;2023-09-19T09:35:01;8.67;;;2.97;;
80338;SDS011;69655;44.498;0.166;2023-09-19T09:46:08;12.07;;;2.27;;
80338;SDS011;69655;44.498;0.166;2023-09-19T09:51:38;13.20;;;2.83;;
80338;SDS011;69655;44.498;0.166;2023-09-19T09:57:11;11.23;;;2.43;;
80338;SDS011;69655;44.498;0.166;2023-09-19T10:02:45;7.87;;;2.20;;
80338;SDS011;69655;44.498;0.166;2023-09-19T10:08:20;7.83;;;2.67;;
80338;SDS011;69655;44.498;0.166;2023-09-19T10:13:51;9.10;;;2.63;;
80338;SDS011;69655;44.498;0.166;2023-09-19T10:19:27;5.87;;;2.40;;
80338;SDS011;69655;44.498;0.166;2023-09-19T10:24:56;7.40;;;2.73;;
80338;SDS011;69655;44.498;0.166;2023-09-19T10:30:31;6.57;;;2.40;;
80338;SDS011;69655;44.498;0.166;2023-09-19T10:36:05;7.07;;;2.50;;
80338;SDS011;69655;44.498;0.166;2023-09-19T10:41:38;10.13;;;2.57;;
80338;SDS011;69655;44.498;0.166;2023-09-19T10:52:43;7.33;;;2.00;;
80338;SDS011;69655;44.498;0.166;2023-09-19T10:58:23;9.70;;;2.47;;
80338;SDS011;69655;44.498;0.166;2023-09-19T11:03:47;7.93;;;2.63;;
80338;SDS011;69655;44.498;0.166;2023-09-19T11:09:20;7.77;;;2.00;;
80338;SDS011;69655;44.498;0.166;2023-09-19T11:14:52;7.40;;;2.30;;
80338;SDS011;69655;44.498;0.166;2023-09-19T11:20:26;5.83;;;1.87;;
80338;SDS011;69655;44.498;0.166;2023-09-19T11:25:59;10.13;;;2.40;;
80338;SDS011;69655;44.498;0.166;2023-09-19T11:31:42;8.40;;;1.93;;
80338;SDS011;69655;44.498;0.166;2023-09-19T11:37:05;8.27;;;1.87;;
80338;SDS011;69655;44.498;0.166;2023-09-19T11:42:41;9.03;;;2.20;;
80338;SDS011;69655;44.498;0.166;2023-09-19T11:48:10;8.87;;;2.00;;
80338;SDS011;69655;44.498;0.166;2023-09-19T11:53:42;6.93;;;2.27;;
80338;SDS011;69655;44.498;0.166;2023-09-19T11:59:14;7.40;;;2.27;;
80338;SDS011;69655;44.498;0.166;2023-09-19T12:04:46;11.73;;;2.23;;
80338;SDS011;69655;44.498;0.166;2023-09-19T12:10:20;6.87;;;2.40;;
80338;SDS011;69655;44.498;0.166;2023-09-19T12:15:55;5.37;;;1.80;;
80338;SDS011;69655;44.498;0.166;2023-09-19T12:26:59;11.30;;;2.33;;
80338;SDS011;69655;44.498;0.166;2023-09-19T12:32:34;5.33;;;1.47;;
80338;SDS011;69655;44.498;0.166;2023-09-19T12:38:05;3.90;;;1.50;;
80338;SDS011;69655;44.498;0.166;2023-09-19T12:43:37;8.00;;;1.93;;
80338;SDS011;69655;44.498;0.166;2023-09-19T12:49:18;6.87;;;2.23;;
80338;SDS011;69655;44.498;0.166;2023-09-19T12:54:41;6.50;;;1.80;;
80338;SDS011;69655;44.498;0.166;2023-09-19T13:00:14;4.87;;;1.70;;
80338;SDS011;69655;44.498;0.166;2023-09-19T13:05:48;8.50;;;1.93;;
80338;SDS011;69655;44.498;0.166;2023-09-19T13:11:20;5.47;;;1.67;;
80338;SDS011;69655;44.498;0.166;2023-09-19T13:16:54;6.93;;;1.57;;
80338;SDS011;69655;44.498;0.166;2023-09-19T13:27:58;5.70;;;1.80;;
80338;SDS011;69655;44.498;0.166;2023-09-19T13:33:30;10.17;;;2.00;;
80338;SDS011;69655;44.498;0.166;2023-09-19T13:39:03;9.90;;;2.30;;
80338;SDS011;69655;44.498;0.166;2023-09-19T13:44:36;11.63;;;2.00;;
80338;SDS011;69655;44.498;0.166;2023-09-19T13:50:08;6.77;;;1.83;;
80338;SDS011;69655;44.498;0.166;2023-09-19T13:55:43;5.23;;;1.77;;
80338;SDS011;69655;44.498;0.166;2023-09-19T14:01:14;11.93;;;2.30;;
80338;SDS011;69655;44.498;0.166;2023-09-19T14:06:47;9.40;;;1.97;;
80338;SDS011;69655;44.498;0.166;2023-09-19T14:12:20;12.87;;;2.27;;
80338;SDS011;69655;44.498;0.166;2023-09-19T14:17:53;8.80;;;2.20;;
80338;SDS011;69655;44.498;0.166;2023-09-19T14:23:26;15.77;;;2.63;;
80338;SDS011;69655;44.498;0.166;2023-09-19T14:28:59;13.73;;;2.37;;
80338;SDS011;69655;44.498;0.166;2023-09-19T14:34:31;5.57;;;1.73;;
80338;SDS011;69655;44.498;0.166;2023-09-19T14:40:06;6.57;;;1.87;;
80338;SDS011;69655;44.498;0.166;2023-09-19T14:45:39;5.23;;;1.40;;
80338;SDS011;69655;44.498;0.166;2023-09-19T14:56:44;7.77;;;1.93;;
80338;SDS011;69655;44.498;0.166;2023-09-19T15:02:16;5.77;;;1.47;;
80338;SDS011;69655;44.498;0.166;2023-09-19T15:07:50;9.10;;;2.10;;
80338;SDS011;69655;44.498;0.166;2023-09-19T15:13:23;3.23;;;1.47;;
80338;SDS011;69655;44.498;0.166;2023-09-19T15:18:55;7.17;;;1.90;;
80338;SDS011;69655;44.498;0.166;2023-09-19T15:24:27;7.73;;;2.27;;
80338;SDS011;69655;44.498;0.166;2023-09-19T15:30:01;6.50;;;2.00;;
80338;SDS011;69655;44.498;0.166;2023-09-19T15:35:33;6.67;;;1.70;;
80338;SDS011;69655;44.498;0.166;2023-09-19T15:41:05;4.63;;;1.43;;
80338;SDS011;69655;44.498;0.166;2023-09-19T15:46:38;7.23;;;2.00;;
80338;SDS011;69655;44.498;0.166;2023-09-19T15:52:11;6.20;;;1.90;;
80338;SDS011;69655;44.498;0.166;2023-09-19T15:57:42;6.73;;;2.03;;
80338;SDS011;69655;44.498;0.166;2023-09-19T16:03:14;8.60;;;2.13;;
80338;SDS011;69655;44.498;0.166;2023-09-19T16:08:47;9.17;;;1.90;;
80338;SDS011;69655;44.498;0.166;2023-09-19T16:14:20;4.90;;;1.73;;
80338;SDS011;69655;44.498;0.166;2023-09-19T16:25:25;8.83;;;2.20;;
80338;SDS011;69655;44.498;0.166;2023-09-19T16:30:58;5.60;;;1.70;;
80338;SDS011;69655;44.498;0.166;2023-09-19T16:36:30;5.60;;;1.97;;
80338;SDS011;69655;44.498;0.166;2023-09-19T16:42:04;7.10;;;2.10;;
80338;SDS011;69655;44.498;0.166;2023-09-19T16:47:36;5.50;;;1.97;;
80338;SDS011;69655;44.498;0.166;2023-09-19T16:53:08;5.73;;;1.70;;
80338;SDS011;69655;44.498;0.166;2023-09-19T16:58:40;7.07;;;1.87;;
80338;SDS011;69655;44.498;0.166;2023-09-19T17:04:11;12.43;;;1.90;;
80338;SDS011;69655;44.498;0.166;2023-09-19T17:09:46;7.37;;;1.90;;
80338;SDS011;69655;44.498;0.166;2023-09-19T17:15:18;7.63;;;2.30;;
80338;SDS011;69655;44.498;0.166;2023-09-19T17:20:51;7.17;;;2.20;;
80338;SDS011;69655;44.498;0.166;2023-09-19T17:26:24;5.77;;;2.10;;
80338;SDS011;69655;44.498;0.166;2023-09-19T17:31:56;5.40;;;1.87;;
80338;SDS011;69655;44.498;0.166;2023-09-19T17:37:29;6.93;;;2.20;;
80338;SDS011;69655;44.498;0.166;2023-09-19T17:43:01;6.80;;;2.00;;
80338;SDS011;69655;44.498;0.166;2023-09-19T17:48:34;10.33;;;2.10;;
80338;SDS011;69655;44.498;0.166;2023-09-19T17:54:06;8.40;;;1.97;;
80338;SDS011;69655;44.498;0.166;2023-09-19T17:59:40;5.63;;;1.90;;
80338;SDS011;69655;44.498;0.166;2023-09-19T18:05:12;5.40;;;2.10;;
80338;SDS011;69655;44.498;0.166;2023-09-19T18:10:45;8.37;;;2.10;;
80338;SDS011;69655;44.498;0.166;2023-09-19T18:21:49;7.90;;;2.03;;
80338;SDS011;69655;44.498;0.166;2023-09-19T18:27:22;12.53;;;2.30;;
80338;SDS011;69655;44.498;0.166;2023-09-19T18:55:07;8.67;;;1.77;;
80338;SDS011;69655;44.498;0.166;2023-09-19T19:00:39;10.27;;;2.00;;
80338;SDS011;69655;44.498;0.166;2023-09-19T19:06:13;7.80;;;2.07;;
80338;SDS011;69655;44.498;0.166;2023-09-19T19:11:44;9.70;;;1.93;;
80338;SDS011;69655;44.498;0.166;2023-09-19T19:17:18;6.60;;;1.77;;
80338;SDS011;69655;44.498;0.166;2023-09-19T19:39:29;7.97;;;2.13;;
80338;SDS011;69655;44.498;0.166;2023-09-19T19:45:02;7.83;;;2.00;;
80338;SDS011;69655;44.498;0.166;2023-09-19T19:50:37;8.13;;;1.80;;
80338;SDS011;69655;44.498;0.166;2023-09-19T19:56:09;8.83;;;1.80;;
80338;SDS011;69655;44.498;0.166;2023-09-19T20:01:41;9.23;;;1.77;;
80338;SDS011;69655;44.498;0.166;2023-09-19T20:12:48;5.43;;;1.77;;
80338;SDS011;69655;44.498;0.166;2023-09-19T20:18:20;5.50;;;1.93;;
80338;SDS011;69655;44.498;0.166;2023-09-19T20:23:52;6.90;;;2.13;;
80338;SDS011;69655;44.498;0.166;2023-09-19T20:29:26;7.17;;;2.37;;
80338;SDS011;69655;44.498;0.166;2023-09-19T20:35:00;5.80;;;2.20;;
80338;SDS011;69655;44.498;0.166;2023-09-19T20:40:32;5.53;;;2.00;;
80338;SDS011;69655;44.498;0.166;2023-09-19T20:46:05;8.27;;;2.07;;
80338;SDS011;69655;44.498;0.166;2023-09-19T20:51:39;7.90;;;2.00;;
80338;SDS011;69655;44.498;0.166;2023-09-19T20:57:10;5.23;;;1.63;;
80338;SDS011;69655;44.498;0.166;2023-09-19T21:02:43;5.83;;;1.90;;
80338;SDS011;69655;44.498;0.166;2023-09-19T21:08:15;5.60;;;1.63;;
80338;SDS011;69655;44.498;0.166;2023-09-19T21:13:47;5.37;;;1.70;;
80338;SDS011;69655;44.498;0.166;2023-09-19T21:19:20;10.30;;;2.03;;
80338;SDS011;69655;44.498;0.166;2023-09-19T21:24:53;7.43;;;2.40;;
80338;SDS011;69655;44.498;0.166;2023-09-19T21:30:25;7.30;;;1.73;;
80338;SDS011;69655;44.498;0.166;2023-09-19T21:35:58;6.90;;;2.17;;
80338;SDS011;69655;44.498;0.166;2023-09-19T21:47:03;6.60;;;1.90;;
80338;SDS011;69655;44.498;0.166;2023-09-19T21:52:36;6.47;;;1.97;;
80338;SDS011;69655;44.498;0.166;2023-09-19T21:58:08;5.27;;;2.07;;
80338;SDS011;69655;44.498;0.166;2023-09-19T22:03:42;7.63;;;1.80;;
80338;SDS011;69655;44.498;0.166;2023-09-19T22:09:15;6.63;;;2.30;;
80338;SDS011;69655;44.498;0.166;2023-09-19T22:14:47;5.83;;;2.13;;
80338;SDS011;69655;44.498;0.166;2023-09-19T22:20:20;10.97;;;2.17;;
80338;SDS011;69655;44.498;0.166;2023-09-19T22:25:53;8.40;;;2.07;;
80338;SDS011;69655;44.498;0.166;2023-09-19T22:31:26;4.43;;;1.87;;
80338;SDS011;69655;44.498;0.166;2023-09-19T22:36:58;8.27;;;2.00;;
80338;SDS011;69655;44.498;0.166;2023-09-19T22:42:31;11.23;;;2.33;;
80338;SDS011;69655;44.498;0.166;2023-09-19T22:48:05;6.37;;;1.90;;
80338;SDS011;69655;44.498;0.166;2023-09-19T22:53:37;8.17;;;2.10;;
80338;SDS011;69655;44.498;0.166;2023-09-19T22:59:09;5.80;;;2.03;;
80338;SDS011;69655;44.498;0.166;2023-09-19T23:04:42;7.63;;;2.33;;
80338;SDS011;69655;44.498;0.166;2023-09-19T23:10:15;7.07;;;2.07;;
80338;SDS011;69655;44.498;0.166;2023-09-19T23:15:48;5.60;;;1.77;;
80338;SDS011;69655;44.498;0.166;2023-09-19T23:21:21;5.30;;;1.70;;
80338;SDS011;69655;44.498;0.166;2023-09-19T23:26:53;6.87;;;2.03;;
80338;SDS011;69655;44.498;0.166;2023-09-19T23:32:26;10.33;;;2.00;;
80338;SDS011;69655;44.498;0.166;2023-09-19T23:37:59;9.37;;;2.40;;
80338;SDS011;69655;44.498;0.166;2023-09-19T23:43:32;4.90;;;1.90;;
80338;SDS011;69655;44.498;0.166;2023-09-19T23:49:05;10.57;;;2.13;;
80338;SDS011;69655;44.498;0.166;2023-09-19T23:54:38;6.20;;;2.13;;
